createdAt,value
2022-09-04T00:00:23.766Z,101203.38
2022-09-04T00:03:20.158Z,101204.94
2022-09-04T00:06:16.610Z,101203.22
2022-09-04T00:09:09.569Z,101205.59
2022-09-04T00:12:04.701Z,101206.38
2022-09-04T00:15:02.744Z,101196.03
2022-09-04T00:17:49.646Z,101203.56
2022-09-04T00:20:46.100Z,101205.66
2022-09-04T00:23:45.160Z,101196.38
2022-09-04T00:26:53.030Z,101205.19
2022-09-04T00:29:55.367Z,101197.59
2022-09-04T00:32:51.745Z,101192.00
2022-09-04T00:36:03.214Z,101199.72
2022-09-04T00:38:56.077Z,101202.78
2022-09-04T00:41:53.007Z,101203.97
2022-09-04T00:44:58.617Z,101201.91
2022-09-04T00:48:13.862Z,101208.59
2022-09-04T00:51:22.049Z,101211.66
2022-09-04T00:54:30.375Z,101211.53
2022-09-04T00:57:29.618Z,101208.28
2022-09-04T01:00:22.301Z,101217.03
2022-09-04T01:03:39.531Z,101215.75
2022-09-04T01:06:29.881Z,101222.88
2022-09-04T01:09:37.704Z,101216.84
2022-09-04T01:12:33.957Z,101217.53
2022-09-04T01:15:43.377Z,101215.88
2022-09-04T01:18:45.797Z,101222.66
2022-09-04T01:21:49.442Z,101226.97
2022-09-04T01:24:39.706Z,101224.59
2022-09-04T01:28:03.558Z,101231.06
2022-09-04T01:31:14.558Z,101235.75
2022-09-04T01:34:31.551Z,101232.91
2022-09-04T01:37:42.127Z,101234.06
2022-09-04T01:40:38.081Z,101233.72
2022-09-04T01:43:25.547Z,101238.88
2022-09-04T01:46:26.306Z,101235.97
2022-09-04T01:49:36.706Z,101246.66
2022-09-04T01:52:45.983Z,101235.00
2022-09-04T01:55:59.359Z,101238.56
2022-09-04T01:59:11.049Z,101236.09
2022-09-04T02:02:34.622Z,101242.41
2022-09-04T02:05:24.734Z,101238.03
2022-09-04T02:08:43.847Z,101244.06
2022-09-04T02:11:32.131Z,101247.41
2022-09-04T02:14:37.356Z,101248.13
2022-09-04T02:17:41.266Z,101252.91
2022-09-04T02:20:31.148Z,101256.06
2022-09-04T02:24:05.149Z,101252.09
2022-09-04T02:27:06.805Z,101256.44
2022-09-04T02:30:01.526Z,101251.75
2022-09-04T02:33:06.616Z,101258.91
2022-09-04T02:36:21.370Z,101249.16
2022-09-04T02:39:08.254Z,101257.19
2022-09-04T02:42:19.682Z,101262.69
2022-09-04T02:45:34.554Z,101268.31
2022-09-04T02:48:44.184Z,101258.72
2022-09-04T02:51:56.266Z,101255.03
2022-09-04T02:55:03.861Z,101248.69
2022-09-04T02:58:26.975Z,101259.13
2022-09-04T03:01:31.438Z,101258.72
2022-09-04T03:04:41.752Z,101254.53
2022-09-04T03:07:45.110Z,101260.38
2022-09-04T03:10:41.818Z,101255.97
2022-09-04T03:14:10.394Z,101258.41
2022-09-04T03:17:09.432Z,101251.88
2022-09-04T03:20:18.344Z,101257.78
2022-09-04T03:23:20.778Z,101261.31
2022-09-04T03:26:07.663Z,101260.69
2022-09-04T03:29:16.318Z,101264.31
2022-09-04T03:32:24.384Z,101261.00
2022-09-04T03:35:26.636Z,101261.81
2022-09-04T03:38:25.513Z,101262.50
2022-09-04T03:41:25.287Z,101265.66
2022-09-04T03:44:31.413Z,101268.69
2022-09-04T03:47:38.564Z,101267.00
2022-09-04T03:50:48.769Z,101272.66
2022-09-04T03:53:50.853Z,101276.78
2022-09-04T03:56:41.370Z,101277.53
2022-09-04T03:59:38.040Z,101280.56
2022-09-04T04:05:03.888Z,101273.47
2022-09-04T04:08:28.190Z,101274.09
2022-09-04T04:11:45.281Z,101272.03
2022-09-04T04:15:11.826Z,101275.47
2022-09-04T04:18:04.685Z,101279.56
2022-09-04T04:21:17.537Z,101280.72
2022-09-04T04:24:21.344Z,101288.22
2022-09-04T04:27:33.903Z,101291.47
2022-09-04T04:30:21.233Z,101290.44
2022-09-04T04:33:14.698Z,101293.25
2022-09-04T04:36:42.901Z,101304.44
2022-09-04T04:39:42.067Z,101308.06
2022-09-04T04:42:45.697Z,101307.25
2022-09-04T04:45:53.028Z,101321.97
2022-09-04T04:49:20.009Z,101313.94
2022-09-04T04:52:20.171Z,101331.81
2022-09-04T04:55:38.774Z,101340.66
2022-09-04T04:58:44.282Z,101340.31
2022-09-04T05:01:47.097Z,101348.50
2022-09-04T05:04:54.513Z,101352.97
2022-09-04T05:07:52.805Z,101348.19
2022-09-04T05:10:47.394Z,101357.72
2022-09-04T05:13:53.027Z,101348.94
2022-09-04T05:17:01.686Z,101355.72
2022-09-04T05:20:40.058Z,101361.91
2022-09-04T05:23:30.421Z,101362.03
2022-09-04T05:26:36.725Z,101369.19
2022-09-04T05:30:00.069Z,101374.28
2022-09-04T05:33:02.324Z,101380.59
2022-09-04T05:36:02.447Z,101389.47
2022-09-04T05:38:57.285Z,101400.00
2022-09-04T05:42:16.890Z,101396.34
2022-09-04T05:45:13.458Z,101401.78
2022-09-04T05:48:38.006Z,101408.56
2022-09-04T05:51:46.648Z,101405.38
2022-09-04T05:54:42.657Z,101408.69
2022-09-04T05:57:29.581Z,101414.09
2022-09-04T06:00:20.441Z,101423.69
2022-09-04T06:03:29.305Z,101428.38
2022-09-04T06:06:39.317Z,101420.91
2022-09-04T06:09:39.503Z,101431.63
2022-09-04T06:12:46.742Z,101426.88
2022-09-04T06:15:40.432Z,101435.63
2022-09-04T06:18:46.961Z,101426.53
2022-09-04T06:21:43.059Z,101448.88
2022-09-04T06:25:16.095Z,101456.56
2022-09-04T06:28:21.343Z,101449.72
2022-09-04T06:31:20.680Z,101452.25
2022-09-04T06:34:35.519Z,101452.47
2022-09-04T06:37:53.173Z,101461.47
2022-09-04T06:40:59.721Z,101457.41
2022-09-04T06:44:01.392Z,101448.34
2022-09-04T06:47:06.550Z,101442.13
2022-09-04T06:50:18.823Z,101462.28
2022-09-04T06:53:41.904Z,101459.78
2022-09-04T06:56:47.701Z,101462.72
2022-09-04T06:59:59.469Z,101472.13
2022-09-04T07:06:15.851Z,101485.19
2022-09-04T07:09:36.676Z,101488.44
2022-09-04T07:12:52.163Z,101499.88
2022-09-04T07:15:48.437Z,101512.78
2022-09-04T07:18:58.058Z,101508.81
2022-09-04T07:21:45.014Z,101523.72
2022-09-04T07:24:55.562Z,101536.31
2022-09-04T07:27:57.346Z,101544.78
2022-09-04T07:30:54.419Z,101532.31
2022-09-04T07:34:02.494Z,101540.44
2022-09-04T07:36:55.321Z,101542.84
2022-09-04T07:40:01.233Z,101553.41
2022-09-04T07:43:13.552Z,101572.75
2022-09-04T07:46:14.296Z,101561.06
2022-09-04T07:49:12.834Z,101560.25
2022-09-04T07:52:20.115Z,101552.97
2022-09-04T07:55:17.326Z,101564.69
2022-09-04T07:58:23.044Z,101564.63
2022-09-04T08:01:19.498Z,101574.72
2022-09-04T08:04:38.294Z,101588.78
2022-09-04T08:07:48.720Z,101572.66
2022-09-04T08:11:13.556Z,101580.66
2022-09-04T08:14:19.022Z,101576.50
2022-09-04T08:17:25.551Z,101580.13
2022-09-04T08:20:24.714Z,101583.69
2022-09-04T08:23:24.873Z,101591.69
2022-09-04T08:26:24.372Z,101588.78
2022-09-04T08:29:17.306Z,101597.03
2022-09-04T08:32:46.359Z,101591.25
2022-09-04T08:35:53.663Z,101607.31
2022-09-04T08:39:11.293Z,101609.56
2022-09-04T08:42:53.788Z,101611.84
2022-09-04T08:45:55.669Z,101597.84
2022-09-04T08:48:51.674Z,101604.28
2022-09-04T08:51:53.869Z,101614.78
2022-09-04T08:55:19.306Z,101604.53
2022-09-04T08:58:29.215Z,101620.03
2022-09-04T09:01:41.158Z,101619.06
2022-09-04T09:04:31.149Z,101611.44
2022-09-04T09:07:21.111Z,101613.91
2022-09-04T09:10:45.059Z,101607.41
2022-09-04T09:13:53.724Z,101624.34
2022-09-04T09:17:03.091Z,101624.38
2022-09-04T09:20:18.071Z,101623.41
2022-09-04T09:23:38.831Z,101626.56
2022-09-04T09:27:23.094Z,101605.50
2022-09-04T09:30:21.681Z,101609.81
2022-09-04T09:33:29.280Z,101616.31
2022-09-04T09:37:02.612Z,101599.56
2022-09-04T09:40:01.741Z,101607.22
2022-09-04T09:43:01.204Z,101597.50
2022-09-04T09:46:22.259Z,101596.75
2022-09-04T09:49:36.133Z,101603.97
2022-09-04T09:53:01.317Z,101602.50
2022-09-04T09:56:21.752Z,101601.00
2022-09-04T09:59:09.731Z,101606.84
2022-09-04T10:02:21.090Z,101612.81
2022-09-04T10:05:07.991Z,101589.47
2022-09-04T10:08:10.664Z,101602.88
2022-09-04T10:11:10.249Z,101598.09
2022-09-04T10:13:57.175Z,101594.88
2022-09-04T10:17:22.799Z,101570.50
2022-09-04T10:20:34.406Z,101610.06
2022-09-04T10:23:40.174Z,101586.72
2022-09-04T10:27:03.234Z,101587.03
2022-09-04T10:30:02.932Z,101576.84
2022-09-04T10:33:07.931Z,101571.47
2022-09-04T10:36:17.073Z,101594.84
2022-09-04T10:39:48.295Z,101590.13
2022-09-04T10:42:53.548Z,101587.28
2022-09-04T10:46:08.572Z,101565.28
2022-09-04T10:49:33.846Z,101577.63
2022-09-04T10:52:51.666Z,101562.06
2022-09-04T10:55:57.759Z,101554.06
2022-09-04T10:59:03.581Z,101561.41
2022-09-04T11:02:25.430Z,101579.50
2022-09-04T11:05:21.733Z,101547.28
2022-09-04T11:08:36.636Z,101557.13
2022-09-04T11:11:26.747Z,101561.22
2022-09-04T11:14:28.983Z,101557.38
2022-09-04T11:17:37.786Z,101556.16
2022-09-04T11:20:40.644Z,101553.13
2022-09-04T11:23:52.210Z,101552.16
2022-09-04T11:27:06.032Z,101543.50
2022-09-04T11:30:12.155Z,101558.97
2022-09-04T11:33:22.975Z,101527.09
2022-09-04T11:37:01.179Z,101539.06
2022-09-04T11:39:55.259Z,101558.78
2022-09-04T11:42:51.321Z,101533.03
2022-09-04T11:45:56.410Z,101553.50
2022-09-04T11:49:09.364Z,101547.75
2022-09-04T11:52:09.124Z,101519.50
2022-09-04T11:55:34.009Z,101538.47
2022-09-04T11:58:47.258Z,101516.56
2022-09-04T12:01:52.652Z,101517.34
2022-09-04T12:04:58.157Z,101520.41
2022-09-04T12:07:59.509Z,101519.19
2022-09-04T12:11:05.228Z,101516.28
2022-09-04T12:14:10.563Z,101507.59
2022-09-04T12:17:23.782Z,101535.00
2022-09-04T12:20:10.717Z,101528.97
2022-09-04T12:23:02.989Z,101516.72
2022-09-04T12:26:03.618Z,101512.31
2022-09-04T12:29:08.893Z,101509.03
2022-09-04T12:32:04.998Z,101510.34
2022-09-04T12:35:17.251Z,101523.25
2022-09-04T12:38:36.012Z,101509.69
2022-09-04T12:41:57.102Z,101513.69
2022-09-04T12:44:50.650Z,101519.44
2022-09-04T12:47:57.200Z,101524.09
2022-09-04T12:50:59.790Z,101505.13
2022-09-04T12:54:07.369Z,101518.53
2022-09-04T12:57:24.591Z,101531.44
2022-09-04T13:00:16.300Z,101528.16
2022-09-04T13:03:23.651Z,101517.25
2022-09-04T13:06:27.530Z,101524.66
2022-09-04T13:09:17.462Z,101531.28
2022-09-04T13:12:07.485Z,101528.50
2022-09-04T13:15:04.349Z,101558.31
2022-09-04T13:18:16.241Z,101536.47
2022-09-04T13:21:12.293Z,101549.56
2022-09-04T13:24:31.877Z,101534.88
2022-09-04T13:27:46.353Z,101542.22
2022-09-04T13:30:40.425Z,101560.47
2022-09-04T13:33:49.574Z,101538.69
2022-09-04T13:36:45.700Z,101530.41
2022-09-04T13:40:06.790Z,101541.84
2022-09-04T13:43:12.042Z,101519.16
2022-09-04T13:46:07.210Z,101515.81
2022-09-04T13:49:02.727Z,101523.38
2022-09-04T13:52:20.257Z,101519.22
2022-09-04T13:55:18.234Z,101534.25
2022-09-04T13:58:13.263Z,101518.91
2022-09-04T14:01:03.113Z,101537.13
2022-09-04T14:04:01.817Z,101566.22
2022-09-04T14:06:50.058Z,101532.03
2022-09-04T14:09:43.791Z,101525.59
2022-09-04T14:12:36.786Z,101529.16
2022-09-04T14:15:40.292Z,101526.91
2022-09-04T14:18:29.974Z,101515.22
2022-09-04T14:21:35.258Z,101517.94
2022-09-04T14:24:35.054Z,101525.63
2022-09-04T14:27:38.041Z,101513.31
2022-09-04T14:30:25.343Z,101519.16
2022-09-04T14:33:28.950Z,101531.06
2022-09-04T14:36:56.479Z,101532.94
2022-09-04T14:39:48.673Z,101532.34
2022-09-04T14:42:45.615Z,101533.16
2022-09-04T14:46:06.938Z,101524.34
2022-09-04T14:49:06.210Z,101531.72
2022-09-04T14:51:56.743Z,101550.53
2022-09-04T14:54:46.720Z,101521.94
2022-09-04T14:57:36.413Z,101513.97
2022-09-04T15:00:24.813Z,101521.16
2022-09-04T15:03:18.738Z,101521.94
2022-09-04T15:06:16.313Z,101512.44
2022-09-04T15:09:25.204Z,101537.75
2022-09-04T15:12:28.693Z,101525.00
2022-09-04T15:15:21.592Z,101526.25
2022-09-04T15:18:23.677Z,101530.44
2022-09-04T15:21:25.635Z,101525.06
2022-09-04T15:24:33.884Z,101527.78
2022-09-04T15:27:46.121Z,101527.34
2022-09-04T15:30:45.302Z,101517.81
2022-09-04T15:33:32.621Z,101530.63
2022-09-04T15:36:27.674Z,101513.34
2022-09-04T15:39:29.222Z,101530.91
2022-09-04T15:42:41.898Z,101532.97
2022-09-04T15:45:50.783Z,101507.78
2022-09-04T15:48:53.293Z,101510.63
2022-09-04T15:51:46.252Z,101517.19
2022-09-04T15:54:55.173Z,101499.19
2022-09-04T15:57:50.717Z,101529.06
2022-09-04T16:00:41.091Z,101505.41
2022-09-04T16:03:38.047Z,101503.34
2022-09-04T16:06:33.001Z,101521.88
2022-09-04T16:09:27.910Z,101507.88
2022-09-04T16:12:21.481Z,101502.31
2022-09-04T16:15:17.017Z,101494.03
2022-09-04T16:18:45.970Z,101502.53
2022-09-04T16:21:51.646Z,101502.50
2022-09-04T16:24:47.374Z,101494.06
2022-09-04T16:28:08.921Z,101517.44
2022-09-04T16:31:11.601Z,101504.31
2022-09-04T16:34:05.842Z,101516.03
2022-09-04T16:37:20.103Z,101506.13
2022-09-04T18:04:20.514Z,101569.03
2022-09-04T18:08:08.139Z,101561.59
2022-09-04T18:15:47.874Z,101569.69
2022-09-04T18:19:38.807Z,101564.69
2022-09-04T18:23:03.251Z,101563.19
2022-09-04T18:26:21.574Z,101574.72
2022-09-04T18:33:07.164Z,101593.19
2022-09-04T18:37:19.828Z,101593.28
2022-09-04T18:37:20.960Z,101586.25
2022-09-04T18:41:48.103Z,101585.03
2022-09-04T18:50:20.300Z,101579.91
2022-09-04T18:50:50.533Z,101588.97
2022-09-04T18:51:19.575Z,101597.09
2022-09-04T18:53:51.665Z,101590.94
2022-09-04T19:01:27.212Z,101598.94
2022-09-04T19:09:22.467Z,101606.75
2022-09-04T19:24:54.974Z,101599.25
2022-09-04T21:46:28.967Z,101655.22
2022-09-04T21:49:35.714Z,101667.31
2022-09-04T21:52:44.698Z,101657.19
2022-09-04T21:59:50.640Z,101660.00
2022-09-04T22:02:39.911Z,101657.59
2022-09-04T22:03:20.320Z,101670.53
2022-09-04T22:06:36.655Z,101664.06
2022-09-04T22:13:31.541Z,101662.03
2022-09-04T22:13:42.964Z,101664.88
2022-09-04T22:16:16.523Z,101664.88
2022-09-04T22:19:33.595Z,101665.69
2022-09-04T22:22:59.727Z,101661.22
2022-09-04T22:26:23.622Z,101668.09
2022-09-04T22:30:01.336Z,101666.47
2022-09-04T22:33:10.103Z,101671.72
2022-09-04T22:36:30.842Z,101664.03
2022-09-04T22:39:47.875Z,101675.75
2022-09-04T22:43:04.899Z,101659.56
2022-09-04T22:46:32.193Z,101668.84
2022-09-04T22:49:19.284Z,101666.44
2022-09-04T22:52:12.537Z,101661.97
2022-09-04T22:55:39.711Z,101667.22
2022-09-04T22:58:52.067Z,101669.19
2022-09-04T23:02:19.787Z,101664.69
2022-09-04T23:06:32.479Z,101664.69
2022-09-04T23:13:42.881Z,101667.91
2022-09-04T23:14:00.284Z,101656.16
2022-09-04T23:16:11.595Z,101663.06
2022-09-04T23:21:09.203Z,101656.94
2022-09-04T23:26:47.009Z,101663.00
2022-09-04T23:26:58.050Z,101663.00
2022-09-04T23:29:44.457Z,101659.03
2022-09-04T23:32:44.738Z,101655.72
2022-09-04T23:35:50.911Z,101658.94
2022-09-04T23:39:02.981Z,101663.75
2022-09-04T23:42:27.543Z,101665.75
2022-09-04T23:45:21.078Z,101669.38
2022-09-04T23:48:28.995Z,101673.75
2022-09-04T23:51:22.231Z,101660.94
2022-09-04T23:54:34.203Z,101671.75
2022-09-04T23:57:28.244Z,101674.94
